createdAt,value
2022-07-30T00:00:08.315Z,2.60
2022-07-30T00:01:08.369Z,2.60
2022-07-30T00:02:08.318Z,2.50
2022-07-30T00:03:08.283Z,2.70
2022-07-30T00:04:08.311Z,2.60
2022-07-30T00:05:08.261Z,2.50
2022-07-30T00:06:08.256Z,2.70
2022-07-30T00:07:08.238Z,2.50
2022-07-30T00:08:08.249Z,2.70
2022-07-30T00:09:08.223Z,2.90
2022-07-30T00:10:08.201Z,2.50
2022-07-30T00:11:08.191Z,2.90
2022-07-30T00:12:08.185Z,2.50
2022-07-30T00:13:08.179Z,2.70
2022-07-30T00:14:08.209Z,2.40
2022-07-30T00:15:08.153Z,2.70
2022-07-30T00:16:08.150Z,2.70
2022-07-30T00:17:08.236Z,2.60
2022-07-30T00:18:08.114Z,2.90
2022-07-30T00:19:08.390Z,2.50
2022-07-30T00:20:08.094Z,2.60
2022-07-30T00:21:08.082Z,2.80
2022-07-30T00:22:08.066Z,2.70
2022-07-30T00:23:08.052Z,3.10
2022-07-30T00:24:08.055Z,2.90
2022-07-30T00:25:08.054Z,2.60
2022-07-30T00:26:08.032Z,2.90
2022-07-30T00:27:08.035Z,2.30
2022-07-30T00:28:08.009Z,2.60
2022-07-30T00:29:07.984Z,2.70
2022-07-30T00:30:07.984Z,2.60
2022-07-30T00:31:08.121Z,2.60
2022-07-30T00:32:08.001Z,2.80
2022-07-30T00:33:08.313Z,2.70
2022-07-30T00:34:07.958Z,3.20
2022-07-30T00:35:07.926Z,2.60
2022-07-30T00:36:07.934Z,2.80
2022-07-30T00:37:07.935Z,3.30
2022-07-30T00:38:07.901Z,2.70
2022-07-30T00:39:07.891Z,3.20
2022-07-30T00:40:07.876Z,2.80
2022-07-30T00:41:07.857Z,3.10
2022-07-30T00:42:07.876Z,2.70
2022-07-30T00:43:07.848Z,2.60
2022-07-30T00:44:07.822Z,2.70
2022-07-30T00:45:07.811Z,2.70
2022-07-30T00:46:07.855Z,2.60
2022-07-30T00:47:07.790Z,2.20
2022-07-30T00:48:07.803Z,2.70
2022-07-30T00:49:07.788Z,2.90
2022-07-30T00:50:07.757Z,2.90
2022-07-30T00:51:07.750Z,3.00
2022-07-30T00:52:07.743Z,2.70
2022-07-30T00:53:07.709Z,2.70
2022-07-30T00:54:07.749Z,3.20
2022-07-30T00:55:07.712Z,2.70
2022-07-30T00:56:07.686Z,3.00
2022-07-30T00:57:07.669Z,2.60
2022-07-30T00:58:07.649Z,2.70
2022-07-30T00:59:07.710Z,3.00
2022-07-30T01:00:07.641Z,3.20
2022-07-30T01:01:07.679Z,2.90
2022-07-30T01:02:07.697Z,3.00
2022-07-30T01:03:07.599Z,3.10
2022-07-30T01:04:07.584Z,3.00
2022-07-30T01:05:07.611Z,3.30
2022-07-30T01:06:14.097Z,3.40
2022-07-30T01:07:08.570Z,3.10
2022-07-30T01:08:07.564Z,3.70
2022-07-30T01:09:07.531Z,3.20
2022-07-30T01:10:07.538Z,3.20
2022-07-30T01:11:07.552Z,3.20
2022-07-30T01:12:07.497Z,3.60
2022-07-30T01:13:07.492Z,3.30
2022-07-30T01:14:07.485Z,3.20
2022-07-30T01:15:07.467Z,3.70
2022-07-30T01:16:07.506Z,3.20
2022-07-30T01:17:07.473Z,3.30
2022-07-30T01:18:07.422Z,3.20
2022-07-30T01:19:07.418Z,3.50
2022-07-30T01:20:08.176Z,3.90
2022-07-30T01:21:07.412Z,3.40
2022-07-30T01:22:07.384Z,3.20
2022-07-30T01:23:07.437Z,3.30
2022-07-30T01:24:07.376Z,3.50
2022-07-30T01:25:07.360Z,3.30
2022-07-30T01:26:07.380Z,3.50
2022-07-30T01:27:07.324Z,3.50
2022-07-30T01:28:07.346Z,3.40
2022-07-30T01:29:07.316Z,3.40
2022-07-30T01:30:07.299Z,3.30
2022-07-30T01:31:07.287Z,3.40
2022-07-30T01:32:07.350Z,3.30
2022-07-30T01:33:07.286Z,3.10
2022-07-30T01:34:07.268Z,3.10
2022-07-30T01:35:07.248Z,3.60
2022-07-30T01:36:07.233Z,3.20
2022-07-30T01:37:07.208Z,3.60
2022-07-30T01:38:07.208Z,3.00
2022-07-30T01:39:07.204Z,3.20
2022-07-30T01:40:07.201Z,3.50
2022-07-30T01:41:07.179Z,3.50
2022-07-30T01:42:07.149Z,3.10
2022-07-30T01:43:07.129Z,3.50
2022-07-30T01:44:07.129Z,3.50
2022-07-30T01:45:07.121Z,3.80
2022-07-30T01:46:07.216Z,3.50
2022-07-30T01:47:07.101Z,3.20
2022-07-30T01:48:07.069Z,3.60
2022-07-30T01:49:07.090Z,3.70
2022-07-30T01:50:07.049Z,3.90
2022-07-30T01:51:07.071Z,3.20
2022-07-30T01:52:07.062Z,3.60
2022-07-30T01:53:07.043Z,3.90
2022-07-30T01:54:07.011Z,3.70
2022-07-30T01:55:16.925Z,3.40
2022-07-30T01:56:10.698Z,3.20
2022-07-30T01:57:06.991Z,3.70
2022-07-30T01:58:06.976Z,3.70
2022-07-30T01:59:06.963Z,3.50
2022-07-30T02:00:06.940Z,3.30
2022-07-30T02:01:06.967Z,3.50
2022-07-30T02:02:06.934Z,3.50
2022-07-30T02:03:07.048Z,3.20
2022-07-30T02:04:06.925Z,3.50
2022-07-30T02:05:06.872Z,3.00
2022-07-30T02:06:06.884Z,3.60
2022-07-30T02:07:06.855Z,3.50
2022-07-30T02:08:06.854Z,3.50
2022-07-30T02:09:10.621Z,3.50
2022-07-30T02:10:06.834Z,3.30
2022-07-30T02:11:06.815Z,3.30
2022-07-30T02:12:06.804Z,3.50
2022-07-30T02:13:06.798Z,3.50
2022-07-30T02:14:06.795Z,3.60
2022-07-30T02:15:06.778Z,2.90
2022-07-30T02:16:06.794Z,3.40
2022-07-30T02:17:06.734Z,3.70
2022-07-30T02:18:06.725Z,3.50
2022-07-30T02:19:06.981Z,3.60
2022-07-30T02:20:09.726Z,3.40
2022-07-30T02:21:07.539Z,3.90
2022-07-30T02:22:06.862Z,3.50
2022-07-30T02:23:06.679Z,3.50
2022-07-30T02:24:06.647Z,3.40
2022-07-30T02:25:06.628Z,3.60
2022-07-30T02:26:06.684Z,3.50
2022-07-30T02:27:06.633Z,3.50
2022-07-30T02:28:06.619Z,3.50
2022-07-30T02:29:11.105Z,3.40
2022-07-30T02:30:06.641Z,3.50
2022-07-30T02:31:17.539Z,3.40
2022-07-30T02:32:07.606Z,3.80
2022-07-30T02:33:06.551Z,3.70
2022-07-30T02:34:06.530Z,3.60
2022-07-30T02:35:06.520Z,3.30
2022-07-30T02:36:11.203Z,2.90
2022-07-30T02:37:07.513Z,3.60
2022-07-30T02:38:06.517Z,3.70
2022-07-30T02:39:06.474Z,3.40
2022-07-30T02:40:06.473Z,3.40
2022-07-30T02:41:06.464Z,3.20
2022-07-30T02:42:06.443Z,3.70
2022-07-30T02:43:06.456Z,3.40
2022-07-30T02:44:06.416Z,3.60
2022-07-30T02:45:06.403Z,3.60
2022-07-30T02:46:06.392Z,3.40
2022-07-30T02:47:06.527Z,3.80
2022-07-30T02:48:06.386Z,3.60
2022-07-30T02:49:06.472Z,3.70
2022-07-30T02:50:06.366Z,3.20
2022-07-30T02:51:06.334Z,3.40
2022-07-30T02:52:06.325Z,3.70
2022-07-30T02:53:06.317Z,3.50
2022-07-30T02:54:06.333Z,3.40
2022-07-30T02:55:06.287Z,3.30
2022-07-30T02:56:06.278Z,3.60
2022-07-30T02:57:06.267Z,3.60
2022-07-30T02:58:06.247Z,3.40
2022-07-30T02:59:06.295Z,3.70
2022-07-30T03:00:06.240Z,3.30
2022-07-30T03:01:06.250Z,3.60
2022-07-30T03:02:06.276Z,4.00
2022-07-30T03:03:06.206Z,3.40
2022-07-30T03:04:06.185Z,3.50
2022-07-30T03:05:06.264Z,3.40
2022-07-30T03:06:06.177Z,3.50
2022-07-30T03:07:08.349Z,3.90
2022-07-30T03:08:06.136Z,3.60
2022-07-30T03:09:06.163Z,4.00
2022-07-30T03:10:06.137Z,3.80
2022-07-30T03:11:06.099Z,3.80
2022-07-30T03:12:06.081Z,3.90
2022-07-30T03:13:06.121Z,3.50
2022-07-30T03:14:06.079Z,3.80
2022-07-30T03:15:06.088Z,3.60
2022-07-30T03:16:06.111Z,3.70
2022-07-30T03:17:06.029Z,4.30
2022-07-30T03:18:06.018Z,3.50
2022-07-30T03:19:06.000Z,3.70
2022-07-30T03:20:06.005Z,3.90
2022-07-30T03:21:05.998Z,3.30
2022-07-30T03:22:05.960Z,4.00
2022-07-30T03:23:05.949Z,3.70
2022-07-30T03:24:05.950Z,3.60
2022-07-30T03:25:05.940Z,3.70
2022-07-30T03:26:05.941Z,3.40
2022-07-30T03:27:05.923Z,3.70
2022-07-30T03:28:05.902Z,3.90
2022-07-30T03:29:05.895Z,3.80
2022-07-30T03:30:05.871Z,3.90
2022-07-30T03:31:05.930Z,3.80
2022-07-30T03:32:05.885Z,3.80
2022-07-30T03:33:05.832Z,3.90
2022-07-30T03:34:06.420Z,3.60
2022-07-30T03:35:06.348Z,4.10
2022-07-30T03:36:05.813Z,4.10
2022-07-30T03:37:05.824Z,3.90
2022-07-30T03:38:05.805Z,3.70
2022-07-30T03:39:05.763Z,4.00
2022-07-30T03:40:05.757Z,3.60
2022-07-30T03:41:05.740Z,4.10
2022-07-30T03:42:05.752Z,3.90
2022-07-30T03:43:05.755Z,3.90
2022-07-30T03:44:06.727Z,3.80
2022-07-30T03:45:05.695Z,4.00
2022-07-30T03:46:05.755Z,3.40
2022-07-30T03:47:06.142Z,3.60
2022-07-30T03:48:05.666Z,3.90
2022-07-30T03:49:05.791Z,3.70
2022-07-30T03:50:05.650Z,3.40
2022-07-30T03:51:05.636Z,3.60
2022-07-30T03:52:05.617Z,3.50
2022-07-30T03:53:05.606Z,3.80
2022-07-30T03:54:05.633Z,3.60
2022-07-30T03:55:05.613Z,3.80
2022-07-30T03:56:05.579Z,3.70
2022-07-30T03:57:05.568Z,3.30
2022-07-30T03:58:05.617Z,4.10
2022-07-30T03:59:05.548Z,4.00
2022-07-30T04:00:05.574Z,3.80
2022-07-30T04:01:05.557Z,4.30
2022-07-30T04:02:06.831Z,4.20
2022-07-30T04:03:05.502Z,4.30
2022-07-30T04:04:05.594Z,4.50
2022-07-30T04:05:05.515Z,4.90
2022-07-30T04:06:05.474Z,4.30
2022-07-30T04:07:05.471Z,4.50
2022-07-30T04:08:05.440Z,4.70
2022-07-30T04:09:05.429Z,4.10
2022-07-30T04:10:05.505Z,4.50
2022-07-30T04:11:05.450Z,4.50
2022-07-30T04:12:05.398Z,4.10
2022-07-30T04:13:09.177Z,4.40
2022-07-30T04:14:05.381Z,4.00
2022-07-30T04:16:05.623Z,4.30
2022-07-30T04:16:41.247Z,4.20
2022-07-30T04:17:06.400Z,4.10
2022-07-30T04:18:05.349Z,4.30
2022-07-30T04:19:05.321Z,4.50
2022-07-30T04:20:05.321Z,4.30
2022-07-30T04:21:05.301Z,4.30
2022-07-30T04:22:05.311Z,4.60
2022-07-30T04:23:05.294Z,4.80
2022-07-30T04:24:05.720Z,4.40
2022-07-30T04:25:05.273Z,4.20
2022-07-30T04:26:05.252Z,4.80
2022-07-30T04:27:05.266Z,4.60
2022-07-30T04:28:05.222Z,4.30
2022-07-30T04:29:05.247Z,4.60
2022-07-30T04:30:05.205Z,4.40
2022-07-30T04:31:05.255Z,4.30
2022-07-30T04:32:05.184Z,4.50
2022-07-30T04:33:05.195Z,4.90
2022-07-30T04:34:05.154Z,4.60
2022-07-30T04:35:05.149Z,4.20
2022-07-30T04:36:05.143Z,4.20
2022-07-30T04:37:05.175Z,4.40
2022-07-30T04:38:05.135Z,4.30
2022-07-30T04:39:05.095Z,3.70
2022-07-30T04:40:05.088Z,4.00
2022-07-30T04:41:05.105Z,4.00
2022-07-30T04:42:05.060Z,3.60
2022-07-30T04:43:05.058Z,4.00
2022-07-30T04:44:05.073Z,4.10
2022-07-30T04:45:05.038Z,3.70
2022-07-30T04:46:05.066Z,3.90
2022-07-30T04:47:05.007Z,4.00
2022-07-30T04:48:04.994Z,4.50
2022-07-30T04:49:05.051Z,4.40
2022-07-30T04:50:04.971Z,4.10
2022-07-30T04:51:04.989Z,4.30
2022-07-30T04:52:04.949Z,4.20
2022-07-30T04:53:04.929Z,4.20
2022-07-30T04:54:04.938Z,4.00
2022-07-30T04:55:04.931Z,4.20
2022-07-30T04:56:04.909Z,4.40
2022-07-30T04:57:05.063Z,4.50
2022-07-30T04:58:04.887Z,4.30
2022-07-30T04:59:04.861Z,4.50
2022-07-30T05:00:04.907Z,3.90
2022-07-30T05:01:04.841Z,4.30
2022-07-30T05:02:04.925Z,4.20
2022-07-30T05:03:04.820Z,3.90
2022-07-30T05:04:04.824Z,4.10
2022-07-30T05:05:04.879Z,4.40
2022-07-30T05:06:04.806Z,4.10
2022-07-30T05:07:04.989Z,4.00
2022-07-30T05:08:04.753Z,4.00
2022-07-30T05:09:04.753Z,4.10
2022-07-30T05:10:04.734Z,3.90
2022-07-30T05:11:04.753Z,4.30
2022-07-30T05:12:04.722Z,3.60
2022-07-30T05:13:04.702Z,3.40
2022-07-30T05:14:04.693Z,3.70
2022-07-30T05:15:04.674Z,4.00
2022-07-30T05:16:04.719Z,3.50
2022-07-30T05:17:04.699Z,3.70
2022-07-30T05:18:04.712Z,3.90
2022-07-30T05:19:07.702Z,3.80
2022-07-30T05:20:04.636Z,4.00
2022-07-30T05:21:04.614Z,4.00
2022-07-30T05:22:06.826Z,3.80
2022-07-30T05:23:04.604Z,4.30
2022-07-30T05:24:04.578Z,3.90
2022-07-30T05:25:04.555Z,4.00
2022-07-30T05:26:05.573Z,4.10
2022-07-30T05:27:04.684Z,3.90
2022-07-30T05:28:04.549Z,3.90
2022-07-30T05:29:07.145Z,4.30
2022-07-30T05:30:04.518Z,4.10
2022-07-30T05:31:08.617Z,3.90
2022-07-30T05:32:04.487Z,3.90
2022-07-30T05:33:08.693Z,3.70
2022-07-30T05:34:05.460Z,3.70
2022-07-30T05:35:04.467Z,4.10
2022-07-30T05:36:04.469Z,3.90
2022-07-30T05:37:04.903Z,4.00
2022-07-30T05:38:04.421Z,4.20
2022-07-30T05:39:04.429Z,4.00
2022-07-30T05:40:05.101Z,4.20
2022-07-30T05:41:04.380Z,4.10
2022-07-30T05:42:05.391Z,4.00
2022-07-30T05:43:04.371Z,3.50
2022-07-30T05:44:04.370Z,4.10
2022-07-30T05:45:04.331Z,3.90
2022-07-30T05:46:04.459Z,3.80
2022-07-30T05:47:04.310Z,4.00
2022-07-30T05:48:04.342Z,4.30
2022-07-30T05:49:04.432Z,4.20
2022-07-30T05:50:05.059Z,3.90
2022-07-30T05:51:04.265Z,4.30
2022-07-30T05:52:04.298Z,4.40
2022-07-30T05:53:04.283Z,4.40
2022-07-30T05:54:04.972Z,3.90
2022-07-30T05:55:04.224Z,3.90
2022-07-30T05:56:04.302Z,4.30
2022-07-30T05:57:04.438Z,3.60
2022-07-30T05:58:04.185Z,3.90
2022-07-30T05:59:04.203Z,3.90
2022-07-30T06:00:04.183Z,3.70
2022-07-30T06:01:04.224Z,3.80
2022-07-30T06:02:04.233Z,4.10
2022-07-30T06:03:04.139Z,3.40
2022-07-30T06:04:04.193Z,3.60
2022-07-30T06:05:04.178Z,4.00
2022-07-30T06:06:04.131Z,4.10
2022-07-30T06:07:04.398Z,3.80
2022-07-30T06:08:04.075Z,3.70
2022-07-30T06:09:04.066Z,3.90
2022-07-30T06:10:04.047Z,3.80
2022-07-30T06:11:04.069Z,4.00
2022-07-30T06:12:04.061Z,3.70
2022-07-30T06:13:04.071Z,3.90
2022-07-30T06:14:04.011Z,3.80
2022-07-30T06:15:04.007Z,3.90
2022-07-30T06:16:04.042Z,3.60
2022-07-30T06:17:04.266Z,3.50
2022-07-30T06:18:03.988Z,3.50
2022-07-30T06:19:03.955Z,3.60
2022-07-30T06:20:03.940Z,4.10
2022-07-30T06:21:03.928Z,3.50
2022-07-30T06:22:06.742Z,3.80
2022-07-30T06:23:03.916Z,3.50
2022-07-30T06:24:03.940Z,3.80
2022-07-30T06:25:03.881Z,3.50
2022-07-30T06:26:03.870Z,3.20
2022-07-30T06:27:04.204Z,4.00
2022-07-30T06:28:15.673Z,3.70
2022-07-30T06:29:04.899Z,3.30
2022-07-30T06:30:03.826Z,3.50
2022-07-30T06:31:03.882Z,3.50
2022-07-30T06:32:03.803Z,3.40
2022-07-30T06:33:03.792Z,3.70
2022-07-30T06:34:03.776Z,4.20
2022-07-30T06:35:04.984Z,3.40
2022-07-30T06:36:03.774Z,3.40
2022-07-30T06:37:04.002Z,3.50
2022-07-30T06:38:07.300Z,3.70
2022-07-30T06:39:03.732Z,3.90
2022-07-30T06:40:03.720Z,3.50
2022-07-30T06:41:04.617Z,3.90
2022-07-30T06:42:03.684Z,3.50
2022-07-30T06:43:03.675Z,3.70
2022-07-30T06:44:03.665Z,3.50
2022-07-30T06:45:03.656Z,3.60
2022-07-30T06:46:03.756Z,4.00
2022-07-30T06:47:07.933Z,3.70
2022-07-30T06:48:03.628Z,4.00
2022-07-30T06:49:03.681Z,3.60
2022-07-30T06:50:03.607Z,4.00
2022-07-30T06:51:03.599Z,4.10
2022-07-30T06:52:03.606Z,4.20
2022-07-30T06:53:03.556Z,3.90
2022-07-30T06:54:03.559Z,4.10
2022-07-30T06:55:03.551Z,3.70
2022-07-30T06:56:03.538Z,4.00
2022-07-30T06:57:03.825Z,4.00
2022-07-30T06:58:03.546Z,4.10
2022-07-30T06:59:03.552Z,3.80
2022-07-30T07:00:03.488Z,3.70
2022-07-30T07:01:03.563Z,4.20
2022-07-30T07:02:04.459Z,3.90
2022-07-30T07:03:03.500Z,3.90
2022-07-30T07:04:03.531Z,3.40
2022-07-30T07:05:03.440Z,4.10
2022-07-30T07:06:03.421Z,4.30
2022-07-30T07:07:03.402Z,3.90
2022-07-30T07:08:04.430Z,3.60
2022-07-30T07:09:03.383Z,3.80
2022-07-30T07:10:03.361Z,3.80
2022-07-30T07:11:03.357Z,4.10
2022-07-30T07:12:03.370Z,3.80
2022-07-30T07:13:03.332Z,3.60
2022-07-30T07:14:04.879Z,4.00
2022-07-30T07:15:03.306Z,3.90
2022-07-30T07:16:03.304Z,4.10
2022-07-30T07:17:03.468Z,3.80
2022-07-30T07:18:03.274Z,4.20
2022-07-30T07:19:03.279Z,4.20
2022-07-30T07:20:03.291Z,4.30
2022-07-30T07:21:03.282Z,4.00
2022-07-30T07:22:03.231Z,3.80
2022-07-30T07:23:09.503Z,3.70
2022-07-30T07:24:04.214Z,3.60
2022-07-30T07:25:03.203Z,3.80
2022-07-30T07:26:03.224Z,3.50
2022-07-30T07:27:03.586Z,3.80
2022-07-30T07:28:12.258Z,4.20
2022-07-30T07:29:05.412Z,4.00
2022-07-30T07:30:06.072Z,3.80
2022-07-30T07:31:03.192Z,4.40
2022-07-30T07:32:06.706Z,4.30
2022-07-30T07:33:03.108Z,4.20
2022-07-30T07:34:03.104Z,4.00
2022-07-30T07:35:03.087Z,4.10
2022-07-30T07:36:03.247Z,5.00
2022-07-30T07:37:03.383Z,4.00
2022-07-30T07:38:03.108Z,4.00
2022-07-30T07:39:03.049Z,4.20
2022-07-30T07:40:03.020Z,4.10
2022-07-30T07:41:03.030Z,4.50
2022-07-30T07:42:03.021Z,4.70
2022-07-30T07:43:03.013Z,4.70
2022-07-30T07:44:02.981Z,4.50
2022-07-30T07:45:02.960Z,4.00
2022-07-30T07:46:03.039Z,4.30
2022-07-30T07:47:03.213Z,4.50
2022-07-30T07:48:03.243Z,4.00
2022-07-30T07:49:03.010Z,4.40
2022-07-30T07:50:02.951Z,4.20
2022-07-30T07:51:02.941Z,4.50
2022-07-30T07:52:03.894Z,4.40
2022-07-30T07:53:02.864Z,4.80
2022-07-30T07:54:20.575Z,4.20
2022-07-30T07:55:03.866Z,4.30
2022-07-30T07:56:02.857Z,4.30
2022-07-30T07:57:04.269Z,4.40
2022-07-30T07:58:02.816Z,4.60
2022-07-30T07:59:02.796Z,3.90
2022-07-30T08:00:02.819Z,4.10
2022-07-30T08:01:02.859Z,4.50
2022-07-30T08:02:03.912Z,4.60
2022-07-30T08:03:02.767Z,4.20
2022-07-30T08:04:02.745Z,4.00
2022-07-30T08:05:03.770Z,4.40
2022-07-30T08:06:06.252Z,3.80
2022-07-30T08:07:03.309Z,3.90
2022-07-30T08:08:02.729Z,3.60
2022-07-30T08:09:02.692Z,3.30
2022-07-30T08:10:02.708Z,3.80
2022-07-30T08:11:02.690Z,3.70
2022-07-30T08:12:02.660Z,4.20
2022-07-30T08:13:02.666Z,3.30
2022-07-30T08:14:02.639Z,3.70
2022-07-30T08:15:02.630Z,3.90
2022-07-30T08:16:02.610Z,4.10
2022-07-30T08:17:03.150Z,4.30
2022-07-30T08:18:02.593Z,3.50
2022-07-30T08:19:02.591Z,4.00
2022-07-30T08:20:02.580Z,4.00
2022-07-30T08:21:02.552Z,4.60
2022-07-30T08:22:02.544Z,3.70
2022-07-30T08:23:02.543Z,4.00
2022-07-30T08:24:02.522Z,3.60
2022-07-30T08:25:03.776Z,3.40
2022-07-30T08:26:02.495Z,3.60
2022-07-30T08:27:02.738Z,3.80
2022-07-30T08:28:02.513Z,3.20
2022-07-30T08:29:02.465Z,3.70
2022-07-30T08:30:02.454Z,3.60
2022-07-30T08:31:02.758Z,3.30
2022-07-30T08:32:02.706Z,3.00
2022-07-30T08:33:02.424Z,3.20
2022-07-30T08:34:02.458Z,3.40
2022-07-30T08:35:02.395Z,3.00
2022-07-30T08:36:03.123Z,3.10
2022-07-30T08:37:02.381Z,2.50
2022-07-30T08:38:02.368Z,3.10
2022-07-30T08:39:03.351Z,2.80
2022-07-30T08:40:03.599Z,3.00
2022-07-30T08:41:02.325Z,3.00
2022-07-30T08:42:02.527Z,3.00
2022-07-30T08:43:02.315Z,3.10
2022-07-30T08:44:02.305Z,2.70
2022-07-30T08:45:02.344Z,3.00
2022-07-30T08:46:02.309Z,2.90
2022-07-30T08:47:02.459Z,2.70
2022-07-30T08:48:02.269Z,2.80
2022-07-30T08:49:06.458Z,2.90
2022-07-30T08:50:03.233Z,3.10
2022-07-30T08:51:02.216Z,2.70
2022-07-30T08:52:02.541Z,2.80
2022-07-30T08:53:02.201Z,2.80
2022-07-30T08:54:02.196Z,3.20
2022-07-30T08:55:02.164Z,3.20
2022-07-30T08:56:02.163Z,2.40
2022-07-30T08:57:02.185Z,2.70
2022-07-30T08:58:02.144Z,2.50
2022-07-30T08:59:02.130Z,2.80
2022-07-30T09:00:02.226Z,2.60
2022-07-30T09:01:02.108Z,3.00
2022-07-30T09:02:02.281Z,2.50
2022-07-30T09:03:02.094Z,3.10
2022-07-30T09:04:02.195Z,3.10
2022-07-30T09:05:02.070Z,2.80
2022-07-30T09:06:02.045Z,2.90
2022-07-30T09:07:02.276Z,3.10
2022-07-30T09:08:03.296Z,2.90
2022-07-30T09:09:02.016Z,2.60
2022-07-30T09:10:01.999Z,2.70
2022-07-30T09:11:01.995Z,2.60
2022-07-30T09:12:02.244Z,2.30
2022-07-30T09:13:01.966Z,2.40
2022-07-30T09:14:04.813Z,2.50
2022-07-30T09:15:01.977Z,2.60
2022-07-30T09:16:02.061Z,2.30
2022-07-30T09:17:02.084Z,2.30
2022-07-30T09:18:01.959Z,2.50
2022-07-30T09:19:01.915Z,2.30
2022-07-30T09:20:01.951Z,2.40
2022-07-30T09:21:01.869Z,2.20
2022-07-30T09:22:01.869Z,2.30
2022-07-30T09:23:01.869Z,2.70
2022-07-30T09:24:01.838Z,2.50
2022-07-30T09:25:01.830Z,2.40
2022-07-30T09:26:01.863Z,2.10
2022-07-30T09:27:02.041Z,2.10
2022-07-30T09:28:01.801Z,2.00
2022-07-30T09:29:01.791Z,2.20
2022-07-30T09:30:01.771Z,1.90
2022-07-30T09:31:01.767Z,2.20
2022-07-30T09:32:02.045Z,2.40
2022-07-30T09:33:01.761Z,2.10
2022-07-30T09:34:01.727Z,2.10
2022-07-30T09:35:01.736Z,2.50
2022-07-30T09:36:01.703Z,2.30
2022-07-30T09:37:01.728Z,2.20
2022-07-30T09:38:06.014Z,2.30
2022-07-30T09:39:01.682Z,2.20
2022-07-30T09:40:01.680Z,2.30
2022-07-30T09:41:08.124Z,2.40
2022-07-30T09:42:03.155Z,2.60
2022-07-30T09:43:01.635Z,2.60
2022-07-30T09:44:01.624Z,2.10
2022-07-30T09:45:01.621Z,2.40
2022-07-30T09:46:01.625Z,2.30
2022-07-30T09:47:01.586Z,2.00
2022-07-30T09:48:01.630Z,2.20
2022-07-30T09:49:01.635Z,2.20
2022-07-30T09:50:07.046Z,2.50
2022-07-30T09:51:02.547Z,2.50
2022-07-30T09:52:01.584Z,2.20
2022-07-30T09:53:01.543Z,2.60
2022-07-30T09:54:01.593Z,2.60
2022-07-30T09:55:01.513Z,2.70
2022-07-30T09:56:01.490Z,2.20
2022-07-30T09:57:01.480Z,2.40
2022-07-30T09:58:02.919Z,2.30
2022-07-30T09:59:01.505Z,2.40
2022-07-30T10:00:01.772Z,2.20
2022-07-30T10:01:01.433Z,2.40
2022-07-30T10:02:04.186Z,2.30
2022-07-30T10:03:12.623Z,2.30
2022-07-30T10:04:02.391Z,2.30
2022-07-30T10:05:01.391Z,2.50
2022-07-30T10:06:01.429Z,2.20
2022-07-30T10:07:01.373Z,1.90
2022-07-30T10:08:05.488Z,2.60
2022-07-30T10:09:02.342Z,2.40
2022-07-30T10:10:02.367Z,2.20
2022-07-30T10:11:05.155Z,1.80
2022-07-30T10:12:02.775Z,2.30
2022-07-30T10:13:01.344Z,1.80
2022-07-30T10:14:01.304Z,2.30
2022-07-30T10:15:01.278Z,2.40
2022-07-30T10:16:01.265Z,2.20
2022-07-30T10:17:01.256Z,2.30
2022-07-30T10:18:01.272Z,2.20
2022-07-30T10:19:01.278Z,2.20
2022-07-30T10:20:02.850Z,2.30
2022-07-30T10:21:05.504Z,2.00
2022-07-30T10:22:01.446Z,2.60
2022-07-30T10:23:07.931Z,2.20
2022-07-30T10:24:02.228Z,2.10
2022-07-30T10:25:01.179Z,2.10
2022-07-30T10:26:03.619Z,2.10
2022-07-30T10:27:01.286Z,2.50
2022-07-30T10:28:03.122Z,2.60
2022-07-30T10:29:01.110Z,2.00
2022-07-30T10:30:03.580Z,2.50
2022-07-30T10:31:01.111Z,2.30
2022-07-30T10:32:02.090Z,2.10
2022-07-30T10:33:01.518Z,1.90
2022-07-30T10:34:01.060Z,2.30
2022-07-30T10:35:01.073Z,2.10
2022-07-30T10:36:02.697Z,2.00
2022-07-30T10:37:01.908Z,2.00
2022-07-30T10:38:02.030Z,1.90
2022-07-30T10:39:01.018Z,2.00
2022-07-30T10:40:01.029Z,2.70
2022-07-30T10:41:00.980Z,2.40
2022-07-30T10:42:00.984Z,2.20
2022-07-30T10:43:01.001Z,2.40
2022-07-30T10:44:00.948Z,2.30
2022-07-30T10:45:00.936Z,2.50
2022-07-30T10:46:00.945Z,2.70
2022-07-30T10:47:01.081Z,2.50
2022-07-30T10:48:01.910Z,2.80
2022-07-30T10:49:00.925Z,2.60
2022-07-30T10:50:00.897Z,2.00
2022-07-30T10:51:01.174Z,2.60
2022-07-30T10:52:00.880Z,2.60
2022-07-30T10:53:00.866Z,2.40
2022-07-30T10:54:00.858Z,2.70
2022-07-30T10:55:00.826Z,2.40
2022-07-30T10:56:01.005Z,2.30
2022-07-30T10:57:00.943Z,2.70
2022-07-30T10:58:00.798Z,2.50
2022-07-30T10:59:00.798Z,2.60
2022-07-30T11:00:01.118Z,2.80
2022-07-30T11:01:00.783Z,2.80
2022-07-30T11:02:00.940Z,3.00
2022-07-30T11:03:00.746Z,2.20
2022-07-30T11:04:01.720Z,2.90
2022-07-30T11:05:00.740Z,2.80
2022-07-30T11:06:00.701Z,3.40
2022-07-30T11:07:00.691Z,2.80
2022-07-30T11:08:00.692Z,2.60
2022-07-30T11:09:00.693Z,2.70
2022-07-30T11:10:09.171Z,3.30
2022-07-30T11:11:19.669Z,2.90
2022-07-30T11:12:06.433Z,2.60
2022-07-30T11:13:01.647Z,3.00
2022-07-30T11:14:00.623Z,2.30
2022-07-30T11:15:07.254Z,3.70
2022-07-30T11:16:01.594Z,3.50
2022-07-30T11:17:00.589Z,3.50
2022-07-30T11:18:00.638Z,4.00
2022-07-30T11:19:27.299Z,3.60
2022-07-30T11:20:01.645Z,6.10
2022-07-30T11:21:00.556Z,7.60
2022-07-30T11:22:01.707Z,3.40
2022-07-30T11:23:00.516Z,3.50
2022-07-30T11:24:00.533Z,3.70
2022-07-30T11:25:00.553Z,3.00
2022-07-30T11:26:01.427Z,3.00
2022-07-30T11:27:00.507Z,3.40
2022-07-30T11:28:01.418Z,3.20
2022-07-30T11:29:00.467Z,3.00
2022-07-30T11:30:00.441Z,3.20
2022-07-30T11:31:00.437Z,3.40
2022-07-30T11:32:06.581Z,3.00
2022-07-30T11:33:01.399Z,3.50
2022-07-30T11:34:00.462Z,2.90
2022-07-30T11:35:00.436Z,3.10
2022-07-30T11:36:01.306Z,3.20
2022-07-30T11:37:00.370Z,3.20
2022-07-30T11:38:02.116Z,3.60
2022-07-30T11:39:05.252Z,3.50
2022-07-30T11:40:01.361Z,2.70
2022-07-30T11:41:01.260Z,3.00
2022-07-30T11:42:00.665Z,3.70
2022-07-30T11:43:01.254Z,3.60
2022-07-30T11:44:00.316Z,3.70
2022-07-30T11:45:04.042Z,4.20
2022-07-30T11:46:01.234Z,3.70
2022-07-30T11:47:00.287Z,3.80
2022-07-30T11:48:00.345Z,3.90
2022-07-30T11:49:00.429Z,3.70
2022-07-30T11:50:00.338Z,3.60
2022-07-30T11:51:03.832Z,3.80
2022-07-30T11:52:01.418Z,3.80
2022-07-30T11:53:00.336Z,4.00
2022-07-30T11:54:00.197Z,3.70
2022-07-30T11:55:00.188Z,3.60
2022-07-30T11:56:00.149Z,3.40
2022-07-30T11:57:04.351Z,3.80
2022-07-30T11:58:00.159Z,3.40
2022-07-30T11:59:00.128Z,3.30
2022-07-30T12:00:00.123Z,3.60
2022-07-30T12:01:00.099Z,3.50
2022-07-30T12:02:00.568Z,3.10
2022-07-30T12:03:03.842Z,3.30
2022-07-30T12:04:00.064Z,3.80
2022-07-30T12:05:00.061Z,4.00
2022-07-30T12:06:00.055Z,4.30
2022-07-30T12:07:00.467Z,4.30
2022-07-30T12:08:00.021Z,3.80
2022-07-30T12:09:00.037Z,3.70
2022-07-30T12:10:00.034Z,3.30
2022-07-30T12:10:59.986Z,3.50
2022-07-30T12:12:00.865Z,2.90
2022-07-30T12:12:59.962Z,3.70
2022-07-30T12:13:59.950Z,3.70
2022-07-30T12:15:01.956Z,3.50
2022-07-30T12:15:59.938Z,3.30
2022-07-30T12:17:00.262Z,3.40
2022-07-30T12:18:24.131Z,3.40
2022-07-30T12:19:00.894Z,3.30
2022-07-30T12:19:59.905Z,3.70
2022-07-30T12:20:59.869Z,4.20
2022-07-30T12:21:59.865Z,3.60
2022-07-30T12:22:59.883Z,3.20
2022-07-30T12:23:59.827Z,3.10
2022-07-30T12:24:59.835Z,3.60
2022-07-30T12:25:59.837Z,3.60
2022-07-30T12:27:00.274Z,3.10
2022-07-30T12:27:59.807Z,3.90
2022-07-30T12:28:59.779Z,3.80
2022-07-30T12:29:59.758Z,3.70
2022-07-30T12:30:59.757Z,3.40
2022-07-30T12:31:59.780Z,3.50
2022-07-30T12:32:59.747Z,3.20
2022-07-30T12:33:59.721Z,3.70
2022-07-30T12:34:59.707Z,3.50
2022-07-30T12:35:59.699Z,3.50
2022-07-30T12:36:59.858Z,3.60
2022-07-30T12:37:59.690Z,3.20
2022-07-30T12:38:59.662Z,3.00
2022-07-30T12:39:59.645Z,3.50
2022-07-30T12:40:59.632Z,3.30
2022-07-30T12:41:59.623Z,3.40
2022-07-30T12:42:59.662Z,3.30
2022-07-30T12:43:59.602Z,3.00
2022-07-30T12:44:59.627Z,3.10
2022-07-30T12:45:59.586Z,3.30
2022-07-30T12:46:59.909Z,2.90
2022-07-30T12:47:59.575Z,3.20
2022-07-30T12:49:06.932Z,3.40
2022-07-30T12:50:01.399Z,3.50
2022-07-30T12:50:59.532Z,3.00
2022-07-30T12:52:00.402Z,3.40
2022-07-30T12:52:59.507Z,3.30
2022-07-30T12:53:59.541Z,3.20
2022-07-30T12:54:59.485Z,3.20
2022-07-30T12:55:59.465Z,3.10
2022-07-30T12:56:59.975Z,3.00
2022-07-30T12:58:02.910Z,3.10
2022-07-30T12:59:00.486Z,3.00
2022-07-30T12:59:59.418Z,3.20
2022-07-30T13:00:59.421Z,2.90
2022-07-30T13:01:59.461Z,3.00
2022-07-30T13:02:59.391Z,3.30
2022-07-30T13:03:59.394Z,2.90
2022-07-30T13:05:11.459Z,2.90
2022-07-30T13:06:00.390Z,2.80
2022-07-30T13:06:59.474Z,2.90
2022-07-30T13:07:59.332Z,3.20
2022-07-30T13:08:59.318Z,3.10
2022-07-30T13:09:59.321Z,2.90
2022-07-30T13:10:59.374Z,3.00
2022-07-30T13:11:59.335Z,2.50
2022-07-30T13:12:59.283Z,2.80
2022-07-30T13:13:59.282Z,3.00
2022-07-30T13:14:59.254Z,2.90
2022-07-30T13:15:59.245Z,3.00
2022-07-30T13:16:59.281Z,3.20
2022-07-30T13:17:59.263Z,3.30